createdAt,value
2019-04-11T00:00:45.922Z,65.55
2019-04-11T00:01:54.253Z,65.43
2019-04-11T00:02:57.865Z,65.44
2019-04-11T00:04:01.919Z,65.29
2019-04-11T00:05:06.440Z,64.73
2019-04-11T00:06:10.108Z,64.71
2019-04-11T00:07:14.279Z,65.13
2019-04-11T00:08:19.590Z,65.01
2019-04-11T00:09:24.637Z,64.66
2019-04-11T00:10:29.299Z,64.60
2019-04-11T00:11:33.580Z,63.96
2019-04-11T00:12:37.386Z,64.38
2019-04-11T00:13:41.193Z,64.36
2019-04-11T00:14:45.747Z,64.43
2019-04-11T00:15:50.885Z,64.32
2019-04-11T00:16:55.413Z,64.23
2019-04-11T00:17:59.126Z,64.03
2019-04-11T00:19:03.109Z,63.96
2019-04-11T00:20:07.672Z,64.33
2019-04-11T00:21:11.481Z,64.35
2019-04-11T00:22:15.209Z,64.59
2019-04-11T00:23:18.860Z,64.61
2019-04-11T00:24:22.892Z,64.45
2019-04-11T00:25:27.530Z,64.62
2019-04-11T00:26:32.600Z,64.58
2019-04-11T00:27:37.250Z,64.93
2019-04-11T00:28:41.691Z,65.15
2019-04-11T00:29:45.439Z,65.40
2019-04-11T00:30:49.089Z,66.34
2019-04-11T00:31:52.845Z,66.32
2019-04-11T00:32:56.384Z,66.38
2019-04-11T00:34:00.160Z,66.99
2019-04-11T00:35:04.925Z,67.03
2019-04-11T00:36:08.564Z,67.21
2019-04-11T00:37:12.770Z,67.31
2019-04-11T00:38:16.447Z,67.44
2019-04-11T00:39:22.130Z,67.30
2019-04-11T00:40:26.971Z,67.40
2019-04-11T00:41:32.264Z,67.93
2019-04-11T00:42:36.789Z,68.09
2019-04-11T00:43:43.511Z,67.86
2019-04-11T00:44:47.978Z,67.87
2019-04-11T00:45:51.921Z,68.01
2019-04-11T00:46:56.352Z,67.93
2019-04-11T00:48:00.069Z,67.72
2019-04-11T00:49:03.743Z,67.62
2019-04-11T00:50:07.682Z,67.86
2019-04-11T00:51:11.911Z,67.90
2019-04-11T00:52:16.288Z,67.96
2019-04-11T00:53:20.507Z,67.92
2019-04-11T00:54:24.805Z,67.89
2019-04-11T00:55:29.349Z,68.15
2019-04-11T00:56:33.082Z,68.14
2019-04-11T00:57:37.070Z,68.14
2019-04-11T00:58:41.554Z,67.96
2019-04-11T00:59:45.303Z,67.75
2019-04-11T01:00:48.960Z,67.84
2019-04-11T01:01:53.392Z,67.58
2019-04-11T01:02:57.952Z,67.67
2019-04-11T01:04:01.748Z,67.64
2019-04-11T01:05:07.457Z,67.55
2019-04-11T01:06:12.201Z,67.29
2019-04-11T01:07:16.563Z,67.30
2019-04-11T01:08:20.409Z,68.15
2019-04-11T01:09:24.309Z,68.63
2019-04-11T01:10:27.945Z,68.46
2019-04-11T01:11:32.105Z,68.10
2019-04-11T01:12:36.551Z,68.01
2019-04-11T01:13:47.702Z,68.08
2019-04-11T01:14:46.838Z,68.16
2019-04-11T01:15:52.431Z,68.03
2019-04-11T01:16:56.950Z,67.78
2019-04-11T01:18:01.471Z,67.77
2019-04-11T01:19:05.183Z,68.14
2019-04-11T01:20:09.867Z,68.04
2019-04-11T01:21:14.169Z,67.88
2019-04-11T01:22:18.183Z,67.77
2019-04-11T01:23:22.772Z,67.71
2019-04-11T01:24:28.074Z,67.62
2019-04-11T01:25:32.668Z,67.44
2019-04-11T01:26:37.188Z,67.27
2019-04-11T01:27:41.231Z,67.06
2019-04-11T01:28:45.273Z,66.95
2019-04-11T01:29:49.490Z,66.86
2019-04-11T01:30:58.853Z,66.81
2019-04-11T01:32:04.322Z,66.75
2019-04-11T01:33:08.031Z,66.72
2019-04-11T01:34:12.660Z,66.81
2019-04-11T01:35:17.266Z,66.69
2019-04-11T01:36:21.394Z,66.73
2019-04-11T01:37:25.991Z,66.89
2019-04-11T01:38:30.483Z,66.75
2019-04-11T01:39:38.740Z,66.80
2019-04-11T01:40:42.379Z,66.82
2019-04-11T01:41:46.756Z,66.82
2019-04-11T01:42:51.362Z,66.80
2019-04-11T01:44:01.783Z,66.75
2019-04-11T01:45:01.055Z,66.83
2019-04-11T01:46:05.667Z,66.94
2019-04-11T01:47:11.198Z,66.87
2019-04-11T01:48:19.597Z,66.88
2019-04-11T01:49:28.344Z,66.96
2019-04-11T01:50:32.960Z,67.17
2019-04-11T01:51:36.622Z,67.36
2019-04-11T01:52:40.348Z,67.64
2019-04-11T01:53:43.973Z,67.99
2019-04-11T01:54:47.990Z,68.11
2019-04-11T01:55:52.556Z,68.07
2019-04-11T01:56:57.900Z,68.59
2019-04-11T01:58:02.541Z,68.48
2019-04-11T01:59:07.014Z,68.47
2019-04-11T02:00:15.623Z,68.99
2019-04-11T02:01:21.000Z,69.01
2019-04-11T02:02:26.507Z,68.91
2019-04-11T02:03:35.065Z,69.19
2019-04-11T02:04:40.525Z,69.50
2019-04-11T02:05:45.280Z,69.58
2019-04-11T02:06:49.994Z,69.69
2019-04-11T02:07:53.634Z,69.68
2019-04-11T02:08:57.740Z,69.88
2019-04-11T02:10:02.494Z,69.62
2019-04-11T02:11:07.038Z,69.72
2019-04-11T02:12:12.081Z,69.75
2019-04-11T02:13:15.853Z,69.81
2019-04-11T02:14:21.166Z,69.99
2019-04-11T02:15:26.678Z,70.52
2019-04-11T02:16:37.513Z,70.63
2019-04-11T02:17:41.220Z,70.47
2019-04-11T02:18:45.717Z,70.30
2019-04-11T02:19:50.290Z,70.13
2019-04-11T02:20:54.352Z,70.03
2019-04-11T02:22:00.131Z,70.12
2019-04-11T02:23:06.771Z,70.34
2019-04-11T02:24:12.071Z,70.29
2019-04-11T02:25:18.510Z,70.32
2019-04-11T02:26:33.439Z,70.23
2019-04-11T02:27:40.058Z,70.82
2019-04-11T02:28:44.630Z,71.09
2019-04-11T02:29:48.885Z,71.29
2019-04-11T02:30:56.238Z,71.16
2019-04-11T02:32:03.387Z,71.20
2019-04-11T02:33:06.982Z,71.85
2019-04-11T02:34:11.492Z,72.04
2019-04-11T02:35:17.607Z,72.08
2019-04-11T02:36:21.365Z,71.87
2019-04-11T02:37:26.299Z,71.85
2019-04-11T02:38:30.540Z,71.68
2019-04-11T02:39:35.609Z,71.75
2019-04-11T02:40:41.082Z,71.66
2019-04-11T02:41:46.774Z,71.93
2019-04-11T02:42:51.851Z,72.40
2019-04-11T02:43:57.508Z,72.96
2019-04-11T02:45:18.058Z,73.07
2019-04-11T02:46:17.410Z,72.89
2019-04-11T02:47:18.173Z,72.60
2019-04-11T02:48:18.347Z,73.04
2019-04-11T02:49:23.763Z,72.94
2019-04-11T02:50:27.579Z,72.94
2019-04-11T02:51:31.358Z,72.92
2019-04-11T02:52:35.538Z,73.23
2019-04-11T02:53:40.917Z,73.58
2019-04-11T02:54:45.231Z,73.59
2019-04-11T02:55:49.792Z,73.50
2019-04-11T02:56:54.788Z,73.60
2019-04-11T02:57:59.779Z,73.68
2019-04-11T02:59:05.163Z,73.71
2019-04-11T03:00:11.134Z,74.08
2019-04-11T03:01:15.571Z,74.22
2019-04-11T03:02:21.182Z,74.86
2019-04-11T03:03:25.524Z,74.56
2019-04-11T03:04:30.992Z,74.35
2019-04-11T03:05:37.549Z,74.27
2019-04-11T03:06:41.785Z,74.52
2019-04-11T03:07:46.323Z,74.98
2019-04-11T03:08:53.077Z,74.92
2019-04-11T03:09:56.825Z,75.19
2019-04-11T03:11:01.793Z,75.29
2019-04-11T03:12:07.241Z,76.25
2019-04-11T03:13:12.695Z,76.25
2019-04-11T03:14:19.054Z,76.39
2019-04-11T03:15:37.681Z,76.48
2019-04-11T03:16:42.650Z,76.33
2019-04-11T03:17:40.071Z,76.33
2019-04-11T03:18:54.917Z,76.76
2019-04-11T03:19:59.444Z,76.73
2019-04-11T03:20:56.957Z,75.96
2019-04-11T03:21:57.257Z,75.96
2019-04-11T03:23:05.084Z,75.04
2019-04-11T03:24:10.351Z,75.35
2019-04-11T03:25:11.946Z,76.02
2019-04-11T03:26:16.897Z,76.02
2019-04-11T03:27:22.391Z,76.01
2019-04-11T03:28:30.147Z,75.82
2019-04-11T03:29:33.768Z,76.13
2019-04-11T03:30:57.354Z,74.44
2019-04-11T03:32:24.616Z,75.28
2019-04-11T17:18:14.099Z,56.55
2019-04-11T17:19:17.727Z,56.65
2019-04-11T17:20:21.543Z,56.92
2019-04-11T17:21:25.188Z,57.39
2019-04-11T17:22:28.842Z,57.23
2019-04-11T17:23:32.519Z,57.50
2019-04-11T17:24:36.444Z,57.29
2019-04-11T17:25:39.926Z,57.70
2019-04-11T17:26:43.586Z,57.34
2019-04-11T17:27:47.301Z,57.48
2019-04-11T17:28:53.570Z,57.66
2019-04-11T17:29:56.478Z,57.83
2019-04-11T17:31:02.284Z,57.46
2019-04-11T17:32:05.595Z,57.24
2019-04-11T17:33:09.308Z,57.52
2019-04-11T17:34:12.955Z,57.69
2019-04-11T17:35:16.743Z,58.23
2019-04-11T17:36:20.471Z,58.33
2019-04-11T17:37:24.119Z,58.70
2019-04-11T17:38:27.833Z,59.17
2019-04-11T17:39:36.626Z,59.51
2019-04-11T17:40:40.085Z,59.37
2019-04-11T17:41:43.995Z,59.79
2019-04-11T17:42:47.737Z,59.93
2019-04-11T17:43:51.891Z,59.79
2019-04-11T17:44:59.261Z,59.76
2019-04-11T17:46:03.267Z,60.24
2019-04-11T17:47:07.042Z,60.35
2019-04-11T17:48:11.039Z,60.42
2019-04-11T17:49:14.675Z,60.26
2019-04-11T17:50:18.306Z,60.26
2019-04-11T17:51:21.984Z,60.89
2019-04-11T17:52:25.614Z,61.01
2019-04-11T17:53:29.273Z,61.34
2019-04-11T17:54:33.015Z,61.19
2019-04-11T17:55:36.688Z,60.98
2019-04-11T17:56:40.576Z,61.44
2019-04-11T17:57:44.223Z,61.78
2019-04-11T17:58:47.975Z,61.81
2019-04-11T17:59:51.623Z,62.02
2019-04-11T18:00:56.887Z,62.12
2019-04-11T18:02:00.563Z,61.87
2019-04-11T18:03:04.186Z,61.98
2019-04-11T18:04:08.845Z,62.03
2019-04-11T18:05:16.692Z,61.87
2019-04-11T18:06:18.310Z,62.20
2019-04-11T18:07:22.004Z,62.49
2019-04-11T18:08:25.723Z,62.93
2019-04-11T18:09:29.352Z,63.17
2019-04-11T18:10:33.511Z,63.52
2019-04-11T18:11:37.115Z,63.53
2019-04-11T18:12:41.148Z,63.63
2019-04-11T18:13:45.707Z,63.52
2019-04-11T18:14:49.350Z,64.03
2019-04-11T18:15:53.111Z,64.01
2019-04-11T18:17:01.572Z,63.97
2019-04-11T18:18:03.097Z,64.18
2019-04-11T18:19:09.655Z,63.97
2019-04-11T18:20:13.512Z,63.63
2019-04-11T18:21:17.526Z,63.93
2019-04-11T18:22:21.177Z,63.76
2019-04-11T18:23:25.132Z,63.62
2019-04-11T18:24:28.780Z,63.95
2019-04-11T18:25:32.560Z,64.14
2019-04-11T18:26:36.270Z,63.92
2019-04-11T18:27:39.918Z,63.55
2019-04-11T18:28:43.591Z,63.52
2019-04-11T18:29:47.599Z,63.71
2019-04-11T18:30:53.802Z,63.67
2019-04-11T18:31:56.696Z,63.48
2019-04-11T18:33:00.402Z,63.58
2019-04-11T18:34:04.552Z,64.01
2019-04-11T18:35:08.564Z,64.32
2019-04-11T18:36:12.294Z,64.49
2019-04-11T18:37:15.963Z,64.66
2019-04-11T18:38:19.590Z,64.66
2019-04-11T18:39:23.252Z,64.64
2019-04-11T18:40:26.856Z,64.67
2019-04-11T18:41:30.560Z,64.29
2019-04-11T18:42:34.248Z,64.02
2019-04-11T18:43:38.291Z,64.20
2019-04-11T18:44:42.064Z,64.25
2019-04-11T18:45:45.846Z,63.82
2019-04-11T18:46:49.733Z,63.51
2019-04-11T18:47:53.408Z,63.47
2019-04-11T18:48:57.535Z,63.17
2019-04-11T18:50:01.227Z,63.11
2019-04-11T18:51:04.883Z,63.43
2019-04-11T18:52:19.227Z,63.57
2019-04-11T18:53:14.207Z,63.69
2019-04-11T18:54:17.840Z,63.62
2019-04-11T18:55:21.534Z,63.10
2019-04-11T18:56:25.180Z,62.76
2019-04-11T18:57:28.889Z,62.90
2019-04-11T18:58:34.451Z,62.57
2019-04-11T18:59:37.971Z,63.02
2019-04-11T19:00:41.578Z,63.46
2019-04-11T19:01:45.288Z,63.72
2019-04-11T19:02:49.017Z,63.89
2019-04-11T19:03:54.297Z,63.92
2019-04-11T19:04:57.941Z,63.99
2019-04-11T19:06:01.583Z,64.02
2019-04-11T19:07:06.021Z,64.18
2019-04-11T19:08:12.886Z,64.20
2019-04-11T19:09:16.872Z,63.98
2019-04-11T19:10:20.741Z,63.89
2019-04-11T19:11:25.520Z,63.93
2019-04-11T19:12:30.139Z,63.47
2019-04-11T19:13:33.950Z,64.15
2019-04-11T19:14:43.841Z,64.79
2019-04-11T19:15:47.163Z,64.65
2019-04-11T19:16:51.061Z,64.94
2019-04-11T19:18:06.369Z,65.55
2019-04-11T19:19:03.978Z,65.54
2019-04-11T19:20:07.745Z,65.06
2019-04-11T19:21:11.570Z,64.77
2019-04-11T19:22:15.241Z,64.59
2019-04-11T19:23:18.917Z,64.35
2019-04-11T19:24:22.656Z,64.20
2019-04-11T19:25:26.351Z,63.98
2019-04-11T19:26:30.150Z,63.98
2019-04-11T19:27:33.831Z,63.92
2019-04-11T19:28:37.393Z,64.01
2019-04-11T19:29:41.030Z,63.96
2019-04-11T19:30:44.917Z,63.92
2019-04-11T19:31:48.567Z,63.95
2019-04-11T19:32:52.241Z,63.90
2019-04-11T19:33:55.870Z,63.83
2019-04-11T19:34:59.837Z,63.71
2019-04-11T19:36:03.497Z,63.71
2019-04-11T19:37:11.669Z,63.60
2019-04-11T19:38:33.107Z,63.89
2019-04-11T19:39:37.883Z,64.28
2019-04-11T19:40:41.516Z,64.51
2019-04-11T19:41:47.776Z,64.39
2019-04-11T19:42:50.623Z,64.42
2019-04-11T19:43:54.319Z,64.30
2019-04-11T19:44:57.908Z,64.33
2019-04-11T19:46:01.608Z,64.33
2019-04-11T19:47:05.276Z,63.73
2019-04-11T19:48:08.984Z,63.86
2019-04-11T19:49:12.686Z,63.79
2019-04-11T19:50:16.322Z,63.30
2019-04-11T19:51:19.980Z,62.92
2019-04-11T19:52:23.668Z,62.79
2019-04-11T19:53:27.361Z,62.82
2019-04-11T19:54:33.024Z,62.92
2019-04-11T19:55:38.219Z,63.19
2019-04-11T19:56:43.492Z,63.68
2019-04-11T19:57:47.202Z,63.46
2019-04-11T19:58:50.823Z,63.14
2019-04-11T19:59:54.531Z,63.14
2019-04-11T20:00:58.161Z,63.51
2019-04-11T20:02:01.796Z,63.55
2019-04-11T20:03:05.505Z,63.55
2019-04-11T20:04:09.151Z,63.48
2019-04-11T20:05:12.789Z,63.42
2019-04-11T20:06:16.421Z,62.86
2019-04-11T20:07:20.482Z,62.86
2019-04-11T20:08:24.165Z,63.55
2019-04-11T20:09:27.818Z,63.81
2019-04-11T20:10:31.565Z,64.08
2019-04-11T20:11:35.253Z,64.49
2019-04-11T20:12:38.885Z,64.47
2019-04-11T20:13:42.571Z,64.44
2019-04-11T20:14:46.202Z,64.84
2019-04-11T20:15:50.670Z,65.00
2019-04-11T20:16:54.467Z,65.97
2019-04-11T20:17:58.123Z,65.97
2019-04-11T20:19:01.899Z,66.44
2019-04-11T20:20:07.013Z,67.17
2019-04-11T20:21:11.398Z,67.45
2019-04-11T20:22:15.172Z,67.46
2019-04-11T20:23:18.807Z,67.74
2019-04-11T20:24:22.466Z,67.57
2019-04-11T20:25:26.066Z,67.48
2019-04-11T20:26:29.618Z,67.41
2019-04-11T20:27:33.270Z,67.36
2019-04-11T20:28:36.913Z,67.61
2019-04-11T20:29:40.601Z,67.55
2019-04-11T20:30:44.533Z,67.63
2019-04-11T20:31:48.169Z,67.38
2019-04-11T20:32:51.830Z,67.73
2019-04-11T20:33:55.450Z,67.55
2019-04-11T20:34:59.132Z,67.55
2019-04-11T20:36:02.787Z,67.17
2019-04-11T20:37:06.430Z,67.01
2019-04-11T20:38:10.091Z,66.88
2019-04-11T20:39:15.212Z,66.75
2019-04-11T20:40:22.274Z,66.89
2019-04-11T20:41:24.504Z,66.93
2019-04-11T20:42:28.157Z,66.67
2019-04-11T20:43:31.766Z,66.55
2019-04-11T20:44:35.708Z,66.42
2019-04-11T20:45:41.013Z,66.26
2019-04-11T20:46:45.616Z,66.12
2019-04-11T20:47:49.254Z,66.02
2019-04-11T20:48:54.654Z,65.96
2019-04-11T20:49:58.416Z,66.03
2019-04-11T20:51:02.146Z,66.16
2019-04-11T20:52:05.767Z,66.33
2019-04-11T20:53:13.012Z,66.24
2019-04-11T20:54:14.679Z,65.96
2019-04-11T20:55:18.308Z,65.99
2019-04-11T20:56:24.441Z,65.98
2019-04-11T20:57:27.294Z,66.04
2019-04-11T20:58:30.964Z,65.89
2019-04-11T20:59:35.203Z,66.22
2019-04-11T21:00:49.502Z,66.15
2019-04-11T21:01:44.821Z,66.13
2019-04-11T21:02:48.474Z,66.10
2019-04-11T21:03:52.100Z,66.12
2019-04-11T21:04:55.752Z,65.98
2019-04-11T21:06:01.707Z,65.95
2019-04-11T21:07:04.780Z,65.84
2019-04-11T21:08:08.430Z,65.64
2019-04-11T21:09:12.662Z,65.58
2019-04-11T21:10:16.296Z,65.70
2019-04-11T21:11:19.928Z,65.84
2019-04-11T21:12:23.601Z,66.07
2019-04-11T21:13:27.228Z,66.30
2019-04-11T21:14:30.973Z,66.11
2019-04-11T21:15:34.619Z,66.24
2019-04-11T21:16:38.264Z,66.16
2019-04-11T21:17:41.918Z,66.05
2019-04-11T21:18:45.644Z,65.96
2019-04-11T21:19:50.948Z,65.90
2019-04-11T21:20:55.343Z,65.84
2019-04-11T21:21:59.475Z,65.88
2019-04-11T21:23:03.286Z,65.95
2019-04-11T21:24:06.922Z,65.97
2019-04-11T21:25:10.664Z,66.01
2019-04-11T21:26:14.360Z,66.07
2019-04-11T21:27:17.987Z,65.96
2019-04-11T21:28:21.666Z,66.03
2019-04-11T21:29:29.985Z,65.75
2019-04-11T21:30:32.113Z,65.54
2019-04-11T21:31:35.794Z,65.53
2019-04-11T21:32:39.487Z,65.60
2019-04-11T21:33:43.180Z,65.64
2019-04-11T21:34:46.830Z,66.05
2019-04-11T21:35:50.420Z,66.18
2019-04-11T21:36:54.157Z,66.17
2019-04-11T21:38:00.186Z,66.19
2019-04-11T21:39:04.616Z,66.18
2019-04-11T21:40:08.362Z,66.38
2019-04-11T21:41:12.058Z,66.30
2019-04-11T21:42:15.697Z,66.21
2019-04-11T21:43:19.340Z,66.22
2019-04-11T21:44:23.010Z,66.16
2019-04-11T21:45:26.773Z,66.14
2019-04-11T21:46:31.662Z,66.15
2019-04-11T21:47:37.190Z,66.10
2019-04-11T21:48:40.927Z,66.14
2019-04-11T21:49:44.562Z,66.32
2019-04-11T21:50:48.221Z,66.63
2019-04-11T21:51:51.903Z,66.82
2019-04-11T21:52:55.546Z,67.04
2019-04-11T21:53:59.193Z,67.47
2019-04-11T21:55:02.969Z,68.16
2019-04-11T21:56:06.619Z,68.15
2019-04-11T21:57:10.273Z,68.07
2019-04-11T21:58:13.962Z,67.81
2019-04-11T21:59:19.979Z,67.84
2019-04-11T22:00:30.580Z,67.74
2019-04-11T22:01:36.442Z,67.91
2019-04-11T22:02:40.200Z,68.34
2019-04-11T22:03:44.447Z,68.60
2019-04-11T22:04:48.202Z,68.34
2019-04-11T22:05:51.996Z,68.08
2019-04-11T22:06:55.650Z,68.05
2019-04-11T22:08:00.915Z,68.11
2019-04-11T22:09:06.516Z,67.87
2019-04-11T22:10:10.730Z,68.02
2019-04-11T22:11:14.413Z,68.02
2019-04-11T22:12:18.069Z,67.96
2019-04-11T22:13:21.713Z,67.33
2019-04-11T22:14:25.430Z,67.03
2019-04-11T22:15:29.127Z,67.12
2019-04-11T22:16:32.804Z,66.95
2019-04-11T22:17:36.432Z,67.07
2019-04-11T22:18:40.070Z,67.31
2019-04-11T22:19:45.835Z,67.14
2019-04-11T22:20:49.150Z,67.11
2019-04-11T22:21:53.159Z,67.67
2019-04-11T22:22:56.782Z,67.54
2019-04-11T22:24:00.412Z,67.29
2019-04-11T22:25:05.138Z,67.40
2019-04-11T22:26:08.787Z,67.44
2019-04-11T22:27:12.447Z,67.71
2019-04-11T22:28:16.171Z,67.96
2019-04-11T22:29:19.727Z,68.14
2019-04-11T22:30:25.314Z,68.23
2019-04-11T22:31:28.803Z,68.36
2019-04-11T22:32:32.492Z,68.55
2019-04-11T22:33:37.787Z,68.51
2019-04-11T22:34:43.084Z,68.23
2019-04-11T22:35:46.738Z,67.98
2019-04-11T22:36:50.389Z,67.91
2019-04-11T22:37:54.082Z,68.07
2019-04-11T22:38:58.740Z,68.12
2019-04-11T22:40:03.595Z,68.08
2019-04-11T22:41:07.392Z,68.16
2019-04-11T22:42:11.287Z,68.12
2019-04-11T22:43:24.090Z,68.25
2019-04-11T22:44:20.361Z,68.01
2019-04-11T22:45:24.211Z,67.98
2019-04-11T22:46:27.867Z,67.90
2019-04-11T22:47:31.830Z,67.77
2019-04-11T22:48:36.842Z,68.00
2019-04-11T22:49:40.940Z,68.16
2019-04-11T22:50:44.573Z,68.22
2019-04-11T22:51:48.313Z,68.13
2019-04-11T22:52:52.347Z,67.93
2019-04-11T22:54:00.555Z,67.92
2019-04-11T22:55:01.317Z,67.93
2019-04-11T22:56:04.972Z,68.03
2019-04-11T22:57:11.679Z,68.94
2019-04-11T22:58:14.710Z,69.27
2019-04-11T22:59:18.545Z,69.49
2019-04-11T23:00:22.457Z,69.71
2019-04-11T23:01:26.103Z,69.57
2019-04-11T23:02:37.199Z,69.47
2019-04-11T23:03:42.524Z,69.29
2019-04-11T23:04:47.163Z,69.02
2019-04-11T23:05:51.316Z,69.10
2019-04-11T23:06:54.959Z,69.48
2019-04-11T23:07:58.666Z,69.54
2019-04-11T23:09:02.319Z,69.33
2019-04-11T23:10:07.502Z,69.21
2019-04-11T23:11:11.182Z,68.83
2019-04-11T23:12:15.221Z,68.37
2019-04-11T23:13:19.550Z,68.28
2019-04-11T23:14:23.185Z,68.13
2019-04-11T23:15:26.850Z,68.25
2019-04-11T23:16:30.432Z,68.21
2019-04-11T23:17:34.070Z,68.08
2019-04-11T23:18:37.720Z,67.97
2019-04-11T23:19:41.831Z,67.91
2019-04-11T23:20:47.094Z,68.04
2019-04-11T23:21:50.872Z,68.20
2019-04-11T23:22:54.526Z,68.68
2019-04-11T23:23:58.164Z,68.70
2019-04-11T23:25:01.848Z,68.58
2019-04-11T23:26:05.585Z,68.66
2019-04-11T23:27:09.345Z,68.55
2019-04-11T23:28:15.567Z,68.55
2019-04-11T23:29:18.350Z,68.58
2019-04-11T23:30:22.057Z,68.63
2019-04-11T23:31:25.750Z,68.69
2019-04-11T23:32:29.341Z,69.01
2019-04-11T23:33:33.032Z,69.21
2019-04-11T23:34:36.624Z,69.23
2019-04-11T23:35:40.315Z,69.33
2019-04-11T23:36:43.878Z,69.66
2019-04-11T23:37:51.922Z,70.38
2019-04-11T23:38:55.804Z,70.64
2019-04-11T23:39:59.433Z,71.76
2019-04-11T23:41:03.071Z,72.34
2019-04-11T23:42:06.749Z,72.48
2019-04-11T23:43:10.470Z,73.08
2019-04-11T23:44:14.162Z,73.08
2019-04-11T23:45:20.779Z,73.17
2019-04-11T23:46:25.033Z,73.02
2019-04-11T23:47:28.715Z,73.07
2019-04-11T23:48:32.316Z,73.09
2019-04-11T23:49:36.010Z,73.59
2019-04-11T23:50:39.573Z,73.40
2019-04-11T23:51:43.189Z,73.31
2019-04-11T23:52:46.900Z,73.37
2019-04-11T23:53:50.528Z,73.79
2019-04-11T23:54:54.030Z,74.01
2019-04-11T23:55:59.834Z,74.37
2019-04-11T23:57:03.092Z,73.94
2019-04-11T23:58:06.783Z,73.79
2019-04-11T23:59:10.522Z,73.63
